Newbiggin-by-the-Sea, United Kingdom
Current Conditions -  °F | °C
As of 2:20 AM on Saturday 29 Nov 2014 (Local Time) from EGNT Reporting Station
Haze Haze  
Wind Chill:   Ceiling: 300
Heat Index:   Visibility: 1.2mi
Dew Point:   Wind: 5mph
Humidity: 100%   Direction: 120°ESE
Pressure: 29.85"   Gusts: NA
Location:  55.19°N, 1.51°W
Report Text: EGNT 290220Z 12004KT 2000 BR OVC003 09/09 Q1011
Loading
Personal Weather Stations






























Interactive Weather Map New forecast layout! Learn more

10-Day Weather Forecast

Advertisements
Track Severe Weather on mobile